Terminal Aerodrome Forecast
Issued by NWS Riverton, WY

Home | Current Version | Previous Version | Text Only | Print | Product List | Glossary On
Versions: 1 2 3 4 5 6 7 8 9 10 11 12
000
FTUS45 KRIW 290500
TAFRIW
TAF
KRIW 290532Z 2906/3006 07005KT P6SM VCSH BKN050
     FM290900 VRB05KT P6SM VCFG SCT003 SCT050
     FM291900 08006KT P6SM FEW015 SCT200
     FM300300 VRB04KT P6SM VCFG SCT003 SCT200=

USA.gov is the U.S. government's official web portal to all federal, state and local government web resources and services.